createdAt,value
2023-02-11T00:01:37.920Z,25.20
2023-02-11T00:04:07.027Z,31.55
2023-02-11T00:06:35.470Z,34.17
2023-02-11T00:09:03.443Z,28.05
2023-02-11T00:11:31.228Z,29.83
2023-02-11T00:13:59.434Z,33.42
2023-02-11T00:16:29.358Z,32.97
2023-02-11T00:18:57.521Z,32.40
2023-02-11T00:21:26.076Z,30.40
2023-02-11T00:23:54.915Z,33.42
2023-02-11T00:26:23.461Z,37.67
2023-02-11T00:28:51.956Z,29.88
2023-02-11T00:31:20.271Z,36.03
2023-02-11T00:33:50.807Z,30.85
2023-02-11T00:36:20.131Z,36.78
2023-02-11T00:38:48.881Z,30.27
2023-02-11T00:41:16.842Z,30.40
2023-02-11T00:43:44.708Z,29.33
2023-02-11T00:46:12.974Z,31.25
2023-02-11T00:48:41.048Z,32.25
2023-02-11T00:51:10.365Z,27.58
2023-02-11T00:53:38.076Z,32.45
2023-02-11T00:56:06.205Z,32.10
2023-02-11T00:58:34.378Z,35.47
2023-02-11T01:01:02.085Z,34.03
2023-02-11T01:03:29.883Z,32.58
2023-02-11T01:05:57.647Z,35.30
2023-02-11T01:08:26.676Z,35.42
2023-02-11T01:10:55.250Z,35.53
2023-02-11T01:13:22.963Z,34.83
2023-02-11T01:15:51.018Z,39.85
2023-02-11T01:18:18.980Z,39.85
2023-02-11T01:20:46.692Z,33.67
2023-02-11T01:23:14.615Z,36.75
2023-02-11T01:25:45.279Z,37.50
2023-02-11T01:28:16.985Z,38.97
2023-02-11T01:30:44.695Z,44.80
2023-02-11T01:33:12.484Z,35.55
2023-02-11T01:35:40.233Z,42.90
2023-02-11T01:38:07.966Z,43.50
2023-02-11T01:40:35.660Z,41.17
2023-02-11T01:43:04.721Z,32.65
2023-02-11T01:45:53.373Z,47.00
2023-02-11T01:48:23.348Z,46.15
2023-02-11T01:50:52.064Z,44.60
2023-02-11T01:53:37.415Z,37.58
2023-02-11T01:56:24.537Z,46.17
2023-02-11T01:58:57.438Z,46.00
2023-02-11T02:01:26.274Z,42.15
2023-02-11T02:03:55.663Z,32.95
2023-02-11T02:06:27.394Z,36.40
2023-02-11T02:08:57.703Z,41.28
2023-02-11T02:11:26.309Z,41.25
2023-02-11T02:13:55.384Z,44.67
2023-02-11T02:16:23.532Z,32.60
2023-02-11T02:18:55.332Z,41.28
2023-02-11T02:21:37.938Z,40.80
2023-02-11T02:24:14.905Z,36.72
2023-02-11T02:26:55.130Z,44.13
2023-02-11T02:29:41.730Z,34.20
2023-02-11T02:32:30.826Z,48.75
2023-02-11T02:35:02.748Z,41.28
2023-02-11T02:37:32.555Z,36.40
2023-02-11T02:40:00.823Z,40.30
2023-02-11T02:42:28.542Z,39.92
2023-02-11T02:44:56.850Z,39.92
2023-02-11T02:47:25.912Z,45.90
2023-02-11T02:49:53.614Z,44.03
2023-02-11T02:52:26.478Z,46.25
2023-02-11T02:54:58.943Z,38.60
2023-02-11T02:57:30.833Z,38.38
2023-02-11T03:00:04.633Z,37.35
2023-02-11T03:02:35.945Z,41.25
2023-02-11T03:05:06.770Z,42.67
2023-02-11T03:07:38.742Z,33.22
2023-02-11T03:10:09.028Z,40.85
2023-02-11T03:12:37.401Z,49.13
2023-02-11T03:15:06.593Z,40.45
2023-02-11T03:17:37.088Z,41.95
2023-02-11T03:20:05.655Z,39.53
2023-02-11T03:22:34.428Z,38.83
2023-02-11T03:25:02.941Z,41.00
2023-02-11T03:27:34.008Z,39.42
2023-02-11T03:30:06.293Z,33.00
2023-02-11T03:32:35.453Z,39.88
2023-02-11T03:35:08.175Z,38.72
2023-02-11T03:37:37.716Z,42.22
2023-02-11T03:40:07.659Z,38.38
2023-02-11T03:42:37.155Z,40.85
2023-02-11T03:45:06.634Z,32.83
2023-02-11T03:47:36.398Z,31.48
2023-02-11T03:50:06.848Z,35.63
2023-02-11T03:52:35.203Z,37.22
2023-02-11T03:55:04.007Z,44.28
2023-02-11T03:57:34.218Z,35.05
2023-02-11T04:00:02.136Z,32.42
2023-02-11T04:02:39.980Z,38.85
2023-02-11T04:05:10.365Z,34.78
2023-02-11T04:07:38.042Z,35.70
2023-02-11T04:10:06.036Z,37.60
2023-02-11T04:12:33.796Z,38.22
2023-02-11T04:15:01.527Z,40.50
2023-02-11T04:17:29.293Z,32.95
2023-02-11T04:19:57.057Z,46.45
2023-02-11T04:22:26.076Z,37.55
2023-02-11T04:24:53.815Z,42.30
2023-02-11T04:27:21.531Z,36.35
2023-02-11T04:29:49.235Z,35.13
2023-02-11T04:32:16.953Z,36.85
2023-02-11T04:34:44.789Z,34.60
2023-02-11T04:37:12.667Z,40.85
2023-02-11T04:39:41.827Z,44.03
2023-02-11T04:42:09.764Z,40.33
2023-02-11T04:44:37.738Z,41.85
2023-02-11T04:47:06.409Z,32.42
2023-02-11T04:49:34.472Z,29.40
2023-02-11T04:52:02.587Z,39.35
2023-02-11T04:54:30.482Z,31.73
2023-02-11T04:56:59.932Z,35.55
2023-02-11T04:59:27.769Z,33.15
2023-02-11T05:01:55.854Z,33.75
2023-02-11T05:04:26.310Z,36.25
2023-02-11T05:06:54.063Z,29.58
2023-02-11T05:09:21.757Z,30.13
2023-02-11T05:11:49.536Z,35.30
2023-02-11T05:14:18.579Z,40.35
2023-02-11T05:16:46.346Z,28.23
2023-02-11T05:19:14.111Z,23.58
2023-02-11T05:21:53.121Z,32.95
2023-02-11T05:24:28.210Z,35.08
2023-02-11T05:26:55.882Z,37.55
2023-02-11T05:29:24.952Z,30.35
2023-02-11T05:31:52.618Z,36.35
2023-02-11T05:34:20.331Z,32.92
2023-02-11T05:36:48.042Z,32.95
2023-02-11T05:39:15.753Z,36.83
2023-02-11T05:41:43.398Z,33.15
2023-02-11T05:44:11.156Z,31.70
2023-02-11T05:46:40.328Z,30.88
2023-02-11T05:49:08.061Z,30.75
2023-02-11T05:51:35.782Z,32.22
2023-02-11T05:54:03.641Z,32.05
2023-02-11T05:56:31.307Z,32.15
2023-02-11T05:58:59.595Z,38.40
2023-02-11T06:01:27.382Z,27.65
2023-02-11T06:03:56.443Z,32.10
2023-02-11T06:06:24.091Z,30.63
2023-02-11T06:08:51.811Z,31.10
2023-02-11T06:11:20.214Z,29.58
2023-02-11T06:13:49.928Z,33.50
2023-02-11T06:16:17.709Z,34.05
2023-02-11T06:18:45.388Z,28.30
2023-02-11T06:21:14.430Z,27.25
2023-02-11T06:23:43.093Z,28.42
2023-02-11T06:26:17.350Z,34.55
2023-02-11T06:28:45.191Z,26.90
2023-02-11T06:31:13.114Z,26.52
2023-02-11T06:33:40.982Z,33.97
2023-02-11T06:36:15.206Z,42.30
2023-02-11T06:38:43.130Z,37.35
2023-02-11T06:41:11.196Z,36.10
2023-02-11T06:43:39.352Z,27.30
2023-02-11T06:46:07.611Z,26.83
2023-02-11T06:48:35.474Z,30.15
2023-02-11T06:51:04.458Z,29.90
2023-02-11T06:53:35.759Z,35.15
2023-02-11T06:56:04.333Z,40.28
2023-02-11T06:58:32.315Z,30.33
2023-02-11T07:01:00.108Z,32.33
2023-02-11T07:03:27.786Z,26.73
2023-02-11T07:05:55.501Z,33.10
2023-02-11T07:08:23.212Z,27.13
2023-02-11T07:10:52.286Z,32.55
2023-02-11T07:13:19.918Z,39.63
2023-02-11T07:15:47.793Z,29.98
2023-02-11T07:18:15.560Z,31.55
2023-02-11T07:20:43.369Z,26.10
2023-02-11T07:23:11.089Z,33.17
2023-02-11T07:25:39.017Z,30.52
2023-02-11T07:28:08.189Z,26.73
2023-02-11T07:30:35.891Z,31.90
2023-02-11T07:33:03.788Z,33.58
2023-02-11T07:35:31.552Z,32.50
2023-02-11T07:37:59.265Z,28.17
2023-02-11T07:40:26.956Z,28.88
2023-02-11T07:42:54.701Z,26.23
2023-02-11T07:45:24.924Z,27.48
2023-02-11T07:47:52.677Z,30.70
2023-02-11T07:50:20.456Z,33.70
2023-02-11T07:52:48.339Z,25.80
2023-02-11T07:55:16.149Z,27.38
2023-02-11T07:57:43.892Z,24.73
2023-02-11T08:00:12.421Z,23.92
2023-02-11T08:02:41.476Z,28.35
2023-02-11T08:05:09.389Z,29.98
2023-02-11T08:07:37.111Z,27.77
2023-02-11T08:10:05.029Z,32.28
2023-02-11T08:12:32.776Z,25.15
2023-02-11T08:15:00.478Z,29.35
2023-02-11T08:17:28.204Z,32.38
2023-02-11T08:19:57.317Z,26.83
2023-02-11T08:22:24.974Z,26.75
2023-02-11T08:24:52.659Z,25.90
2023-02-11T08:27:20.447Z,26.55
2023-02-11T08:29:48.125Z,27.67
2023-02-11T08:32:15.951Z,32.80
2023-02-11T08:34:43.702Z,28.17
2023-02-11T08:37:36.371Z,28.77
2023-02-11T08:40:06.277Z,27.08
2023-02-11T08:42:34.000Z,29.15
2023-02-11T08:45:01.688Z,23.70
2023-02-11T08:47:29.374Z,25.17
2023-02-11T08:49:57.103Z,28.13
2023-02-11T08:52:24.815Z,29.33
2023-02-11T08:54:52.565Z,28.10
2023-02-11T08:57:21.715Z,25.75
2023-02-11T08:59:49.656Z,25.23
2023-02-11T09:02:17.457Z,26.08
2023-02-11T09:04:45.207Z,24.45
2023-02-11T09:07:13.641Z,27.25
2023-02-11T09:09:41.401Z,26.15
2023-02-11T09:12:09.135Z,30.90
2023-02-11T09:14:38.383Z,25.05
2023-02-11T09:17:06.137Z,25.83
2023-02-11T09:19:33.841Z,27.17
2023-02-11T09:22:02.452Z,29.88
2023-02-11T09:24:30.152Z,32.38
2023-02-11T09:26:57.914Z,26.05
2023-02-11T09:29:25.645Z,27.05
2023-02-11T09:31:54.845Z,39.55
2023-02-11T09:34:22.672Z,28.13
2023-02-11T09:36:50.510Z,25.83
2023-02-11T09:39:19.556Z,29.40
2023-02-11T09:42:11.174Z,31.42
2023-02-11T09:44:39.932Z,27.90
2023-02-11T09:47:18.545Z,27.77
2023-02-11T09:49:48.034Z,30.83
2023-02-11T09:52:20.277Z,31.27
2023-02-11T09:54:52.917Z,27.40
2023-02-11T09:57:28.509Z,25.52
2023-02-11T09:59:57.334Z,25.02
2023-02-11T10:02:30.639Z,27.02
2023-02-11T10:05:16.217Z,30.67
2023-02-11T10:07:47.434Z,28.85
2023-02-11T10:10:19.534Z,26.45
2023-02-11T10:12:59.188Z,28.27
2023-02-11T10:18:02.824Z,27.25
2023-02-11T10:20:33.510Z,27.95
2023-02-11T10:23:02.243Z,28.80
2023-02-11T10:25:34.668Z,32.33
2023-02-11T10:28:11.228Z,32.42
2023-02-11T10:30:42.008Z,34.75
2023-02-11T10:33:14.943Z,31.15
2023-02-11T10:35:43.918Z,35.58
2023-02-11T10:38:12.347Z,33.70
2023-02-11T10:40:40.167Z,31.75
2023-02-11T10:43:11.585Z,35.35
2023-02-11T10:45:40.978Z,32.15
2023-02-11T10:48:28.971Z,38.13
2023-02-11T10:51:07.726Z,28.48
2023-02-11T10:53:35.695Z,34.15
2023-02-11T10:56:03.815Z,24.90
2023-02-11T10:58:32.657Z,35.53
2023-02-11T11:01:01.023Z,31.60
2023-02-11T11:03:32.286Z,37.05
2023-02-11T11:06:01.282Z,32.42
2023-02-11T11:08:40.525Z,27.83
2023-02-11T11:11:09.249Z,36.17
2023-02-11T11:13:38.636Z,27.25
2023-02-11T11:16:24.097Z,27.40
2023-02-11T11:18:52.697Z,31.52
2023-02-11T11:21:22.440Z,32.45
2023-02-11T11:24:01.559Z,29.48
2023-02-11T11:26:30.586Z,35.72
2023-02-11T11:28:59.946Z,29.67
2023-02-11T11:31:29.497Z,31.75
2023-02-11T11:33:59.065Z,31.48
2023-02-11T11:36:33.179Z,35.00
2023-02-11T11:39:04.070Z,26.85
2023-02-11T11:41:32.594Z,28.40
2023-02-11T11:44:05.119Z,30.33
2023-02-11T11:46:34.574Z,36.08
2023-02-11T11:49:08.201Z,40.38
2023-02-11T11:54:07.206Z,27.10
2023-02-11T11:56:35.607Z,32.30
2023-02-11T11:59:04.121Z,31.45
2023-02-11T12:01:37.202Z,31.98
2023-02-11T12:04:20.402Z,29.70
2023-02-11T12:06:56.152Z,35.65
2023-02-11T12:09:29.469Z,38.15
2023-02-11T12:12:06.141Z,34.70
2023-02-11T12:14:36.568Z,31.85
2023-02-11T12:17:08.523Z,34.08
2023-02-11T12:20:03.033Z,30.98
2023-02-11T12:22:35.705Z,34.17
2023-02-11T12:25:21.044Z,36.17
2023-02-11T12:27:53.625Z,35.22
2023-02-11T12:30:30.336Z,34.72
2023-02-11T12:33:05.192Z,33.85
2023-02-11T12:35:38.395Z,28.38
2023-02-11T12:38:19.766Z,36.40
2023-02-11T12:40:50.068Z,28.15
2023-02-11T12:43:21.904Z,34.10
2023-02-11T12:46:03.029Z,32.28
2023-02-11T12:48:45.617Z,29.88
2023-02-11T12:51:19.814Z,31.13
2023-02-11T12:54:06.969Z,29.85
2023-02-11T12:56:37.975Z,31.33
2023-02-11T12:59:13.910Z,35.05
2023-02-11T13:01:43.615Z,29.65
2023-02-11T13:04:14.521Z,39.05
2023-02-11T13:06:45.757Z,48.63
2023-02-11T13:09:18.886Z,38.88
2023-02-11T13:11:51.803Z,33.58
2023-02-11T13:14:24.689Z,34.35
2023-02-11T13:16:52.609Z,24.90
2023-02-11T13:19:24.787Z,27.13
2023-02-11T13:21:57.416Z,31.42
2023-02-11T13:24:30.022Z,28.65
2023-02-11T13:27:01.365Z,28.35
2023-02-11T13:29:34.505Z,30.63
2023-02-11T13:32:09.596Z,31.15
2023-02-11T13:34:56.533Z,28.98
2023-02-11T13:37:26.421Z,24.90
2023-02-11T13:40:00.977Z,24.00
2023-02-11T13:42:28.836Z,34.53
2023-02-11T13:44:58.179Z,27.70
2023-02-11T13:47:31.170Z,28.00
2023-02-11T13:50:00.266Z,32.85
2023-02-11T13:52:29.459Z,27.17
2023-02-11T13:54:59.089Z,22.15
2023-02-11T13:57:37.201Z,23.75
2023-02-11T14:00:30.776Z,23.08
2023-02-11T14:03:33.791Z,23.63
2023-02-11T14:06:33.781Z,27.58
2023-02-11T14:09:09.563Z,28.45
2023-02-11T14:11:44.941Z,29.15
2023-02-11T14:14:21.669Z,28.85
2023-02-11T14:17:22.769Z,31.45
2023-02-11T14:19:50.668Z,21.85
2023-02-11T14:22:20.456Z,28.85
2023-02-11T14:24:52.145Z,24.58
2023-02-11T14:27:23.225Z,25.52
2023-02-11T14:29:54.905Z,28.27
2023-02-11T14:32:33.515Z,30.85
2023-02-11T14:35:06.416Z,32.95
2023-02-11T14:37:39.185Z,28.15
2023-02-11T14:40:17.763Z,28.55
2023-02-11T14:42:45.908Z,25.42
2023-02-11T14:45:17.795Z,30.05
2023-02-11T14:47:50.142Z,27.55
2023-02-11T14:50:20.310Z,36.22
2023-02-11T14:52:48.959Z,30.73
2023-02-11T14:55:30.049Z,29.02
2023-02-11T14:58:14.931Z,23.73
2023-02-11T15:01:05.661Z,28.73
2023-02-11T15:03:35.975Z,27.85
2023-02-11T15:06:06.388Z,26.00
2023-02-11T15:08:35.456Z,35.22
2023-02-11T15:11:08.847Z,32.42
2023-02-11T15:13:36.736Z,28.10
2023-02-11T15:16:06.942Z,30.58
2023-02-11T15:18:36.916Z,32.50
2023-02-11T15:21:04.996Z,27.15
2023-02-11T15:23:32.914Z,31.20
2023-02-11T15:26:04.793Z,31.30
2023-02-11T15:28:35.322Z,31.83
2023-02-11T15:31:04.473Z,30.88
2023-02-11T15:33:32.985Z,26.55
2023-02-11T15:36:01.225Z,35.25
2023-02-11T15:38:30.245Z,27.40
2023-02-11T15:41:01.092Z,30.67
2023-02-11T15:43:44.199Z,30.90
2023-02-11T15:46:13.871Z,31.20
2023-02-11T15:48:43.644Z,30.85
2023-02-11T15:51:18.585Z,32.30
2023-02-11T15:53:48.968Z,34.47
2023-02-11T15:56:19.888Z,35.97
2023-02-11T15:58:50.173Z,33.75
2023-02-11T16:01:18.753Z,34.22
2023-02-11T16:03:51.135Z,29.27
2023-02-11T16:06:20.348Z,40.85
2023-02-11T16:08:58.289Z,33.53
2023-02-11T16:11:29.542Z,34.35
2023-02-11T16:13:59.945Z,30.33
2023-02-11T16:16:29.057Z,28.63
2023-02-11T16:19:04.846Z,33.58
2023-02-11T16:21:35.696Z,27.50
2023-02-11T16:24:04.627Z,32.72
2023-02-11T16:26:35.113Z,31.33
2023-02-11T16:29:05.713Z,30.00
2023-02-11T16:31:34.477Z,32.45
2023-02-11T16:34:02.436Z,29.55
2023-02-11T16:36:30.297Z,29.55
2023-02-11T16:38:58.099Z,38.25
2023-02-11T16:41:25.892Z,37.03
2023-02-11T16:43:53.624Z,31.70
2023-02-11T16:46:22.766Z,36.85
2023-02-11T16:48:51.005Z,28.08
2023-02-11T16:51:18.929Z,32.15
2023-02-11T16:53:46.648Z,32.22
2023-02-11T16:56:18.509Z,30.88
2023-02-11T16:58:46.545Z,27.40
2023-02-11T17:01:14.551Z,28.00
2023-02-11T17:03:43.962Z,32.88
2023-02-11T17:06:12.628Z,32.83
2023-02-11T17:08:40.663Z,37.03
2023-02-11T17:11:08.502Z,30.10
2023-02-11T17:13:36.439Z,32.95
2023-02-11T17:16:04.211Z,35.28
2023-02-11T17:18:32.029Z,32.08
2023-02-11T17:21:01.332Z,27.00
2023-02-11T17:23:29.148Z,27.45
2023-02-11T17:25:57.230Z,28.55
2023-02-11T17:28:25.014Z,30.13
2023-02-11T17:30:52.980Z,32.00
2023-02-11T17:33:20.878Z,30.38
2023-02-11T17:35:48.610Z,25.17
2023-02-11T17:38:17.669Z,29.42
2023-02-11T17:40:45.584Z,36.08
2023-02-11T17:43:13.425Z,31.30
2023-02-11T17:45:42.332Z,25.77
2023-02-11T17:48:10.006Z,28.65
2023-02-11T17:50:37.758Z,31.98
2023-02-11T17:53:05.451Z,28.10
2023-02-11T17:55:35.136Z,28.35
2023-02-11T17:58:02.967Z,30.58
2023-02-11T18:00:30.749Z,25.92
2023-02-11T18:03:02.698Z,29.42
2023-02-11T18:05:34.537Z,32.63
2023-02-11T18:08:02.203Z,35.75
2023-02-11T18:10:29.918Z,35.58
2023-02-11T18:12:59.026Z,29.60
2023-02-11T18:15:26.729Z,40.50
2023-02-11T18:17:54.438Z,28.48
2023-02-11T18:20:22.214Z,30.10
2023-02-11T18:22:49.941Z,29.25
2023-02-11T18:25:18.766Z,28.25
2023-02-11T18:27:46.553Z,27.20
2023-02-11T18:30:17.338Z,20.85
2023-02-11T18:32:45.169Z,26.45
2023-02-11T18:35:15.149Z,27.65
2023-02-11T18:37:43.624Z,31.40
2023-02-11T18:40:12.131Z,27.67
2023-02-11T18:42:39.945Z,20.15
2023-02-11T18:45:09.404Z,21.77
2023-02-11T18:47:38.654Z,25.13
2023-02-11T18:50:07.324Z,21.20
2023-02-11T18:52:36.806Z,17.80
2023-02-11T18:55:04.621Z,24.50
2023-02-11T18:57:32.371Z,19.33
2023-02-11T19:00:00.159Z,22.10
2023-02-11T19:02:29.286Z,16.92
2023-02-11T19:04:58.379Z,20.50
2023-02-11T19:07:26.169Z,21.50
2023-02-11T19:09:53.916Z,23.98
2023-02-11T19:12:21.688Z,23.63
2023-02-11T19:14:49.459Z,25.00
2023-02-11T19:17:17.335Z,24.48
2023-02-11T19:19:45.029Z,24.10
2023-02-11T19:22:14.097Z,22.65
2023-02-11T19:24:41.791Z,29.35
2023-02-11T19:27:10.185Z,22.98
2023-02-11T19:29:38.228Z,22.83
2023-02-11T19:32:06.845Z,23.40
2023-02-11T19:34:40.880Z,29.75
2023-02-11T19:37:08.631Z,28.77
2023-02-11T19:39:37.711Z,24.70
2023-02-11T19:42:05.657Z,23.30
2023-02-11T19:44:33.439Z,26.88
2023-02-11T19:47:01.720Z,23.75
2023-02-11T19:49:29.485Z,26.95
2023-02-11T19:51:58.380Z,26.67
2023-02-11T19:54:27.358Z,26.73
2023-02-11T19:56:56.920Z,22.77
2023-02-11T19:59:24.587Z,25.33
2023-02-11T20:01:53.741Z,24.20
2023-02-11T20:04:21.716Z,28.45
2023-02-11T20:06:49.449Z,24.27
2023-02-11T20:09:17.191Z,21.20
2023-02-11T20:11:45.031Z,25.40
2023-02-11T20:14:15.590Z,23.92
2023-02-11T20:16:49.243Z,22.75
2023-02-11T20:19:18.679Z,24.88
2023-02-11T20:21:47.732Z,31.40
2023-02-11T20:24:15.680Z,23.27
2023-02-11T20:26:43.417Z,21.00
2023-02-11T20:29:11.327Z,26.33
2023-02-11T20:31:40.545Z,26.70
2023-02-11T20:34:08.377Z,24.55
2023-02-11T20:36:38.022Z,29.77
2023-02-11T20:39:06.439Z,34.92
2023-02-11T20:41:35.250Z,30.23
2023-02-11T20:44:03.798Z,26.10
2023-02-11T20:46:32.878Z,44.13
2023-02-11T20:49:02.520Z,29.27
2023-02-11T20:51:31.670Z,36.83
2023-02-11T20:53:59.772Z,35.28
2023-02-11T20:56:28.697Z,35.33
2023-02-11T20:58:58.091Z,34.33
2023-02-11T21:01:26.679Z,34.70
2023-02-11T21:03:55.899Z,29.75
2023-02-11T21:06:25.715Z,28.55
2023-02-11T21:08:54.083Z,29.23
2023-02-11T21:11:21.929Z,27.73
2023-02-11T21:13:49.637Z,32.83
2023-02-11T21:16:18.083Z,32.50
2023-02-11T21:18:45.956Z,33.47
2023-02-11T21:21:13.743Z,32.83
2023-02-11T21:23:42.820Z,31.20
2023-02-11T21:26:10.517Z,28.83
2023-02-11T21:28:40.986Z,31.90
2023-02-11T21:31:09.049Z,30.75
2023-02-11T21:33:36.881Z,38.83
2023-02-11T21:36:07.680Z,26.55
2023-02-11T21:38:35.775Z,28.00
2023-02-11T21:41:05.718Z,23.63
2023-02-11T21:43:34.111Z,24.38
2023-02-11T21:46:02.061Z,30.90
2023-02-11T21:48:32.118Z,22.45
2023-02-11T21:51:00.929Z,27.40
2023-02-11T21:53:28.643Z,25.58
2023-02-11T21:56:02.858Z,23.83
2023-02-11T21:58:31.952Z,23.42
2023-02-11T22:00:59.738Z,22.60
2023-02-11T22:03:27.492Z,23.55
2023-02-11T22:05:55.450Z,24.60
2023-02-11T22:08:23.325Z,21.08
2023-02-11T22:10:51.018Z,27.23
2023-02-11T22:13:18.750Z,30.27
2023-02-11T22:15:57.816Z,25.00
2023-02-11T22:18:25.721Z,24.05
2023-02-11T22:21:03.253Z,24.17
2023-02-11T22:23:31.231Z,27.38
2023-02-11T22:25:59.361Z,25.23
2023-02-11T22:28:27.179Z,25.95
2023-02-11T22:30:56.897Z,25.00
2023-02-11T22:33:25.084Z,57.92
2023-02-11T22:35:58.551Z,28.05
2023-02-11T22:38:26.303Z,28.05
2023-02-11T22:40:54.046Z,24.27
2023-02-11T22:43:21.854Z,25.58
2023-02-11T22:45:49.802Z,25.38
2023-02-11T22:48:22.094Z,20.58
2023-02-11T22:50:50.802Z,22.42
2023-02-11T22:53:18.480Z,24.50
2023-02-11T22:55:46.192Z,21.52
2023-02-11T22:58:13.937Z,26.38
2023-02-11T23:00:42.750Z,20.85
2023-02-11T23:03:11.361Z,25.50
2023-02-11T23:05:41.066Z,20.05
2023-02-11T23:08:09.280Z,22.85
2023-02-11T23:10:37.231Z,28.60
2023-02-11T23:13:05.757Z,22.27
2023-02-11T23:15:33.837Z,21.63
2023-02-11T23:18:02.636Z,24.30
2023-02-11T23:20:30.398Z,19.52
2023-02-11T23:22:59.445Z,19.85
2023-02-11T23:25:27.208Z,19.75
2023-02-11T23:27:54.921Z,21.88
2023-02-11T23:30:23.042Z,22.65
2023-02-11T23:32:51.175Z,20.75
2023-02-11T23:35:22.176Z,16.58
2023-02-11T23:37:50.284Z,23.77
2023-02-11T23:40:19.848Z,18.52
2023-02-11T23:42:49.059Z,22.67
2023-02-11T23:45:17.036Z,19.17
2023-02-11T23:47:45.050Z,14.40
2023-02-11T23:50:12.959Z,21.90
2023-02-11T23:52:40.645Z,19.30
2023-02-11T23:55:08.524Z,17.35
2023-02-11T23:57:37.582Z,19.55
